sensor_id;sensor_type;location;lat;lon;timestamp;P1;durP1;ratioP1;P2;durP2;ratioP2
73869;SDS011;64924;42.140;24.762;2024-03-02T00:00:21;62.20;;;28.55;;
73869;SDS011;64924;42.140;24.762;2024-03-02T00:02:50;57.17;;;27.42;;
73869;SDS011;64924;42.140;24.762;2024-03-02T00:05:17;55.30;;;27.42;;
73869;SDS011;64924;42.140;24.762;2024-03-02T00:07:44;63.80;;;30.42;;
73869;SDS011;64924;42.140;24.762;2024-03-02T00:10:12;54.88;;;27.50;;
73869;SDS011;64924;42.140;24.762;2024-03-02T00:12:44;59.75;;;28.45;;
73869;SDS011;64924;42.140;24.762;2024-03-02T00:17:56;65.22;;;31.10;;
73869;SDS011;64924;42.140;24.762;2024-03-02T00:20:22;67.45;;;30.88;;
73869;SDS011;64924;42.140;24.762;2024-03-02T00:22:48;69.00;;;30.08;;
73869;SDS011;64924;42.140;24.762;2024-03-02T00:25:15;69.95;;;30.75;;
73869;SDS011;64924;42.140;24.762;2024-03-02T00:27:41;66.05;;;30.38;;
73869;SDS011;64924;42.140;24.762;2024-03-02T00:33:06;67.32;;;29.33;;
73869;SDS011;64924;42.140;24.762;2024-03-02T00:35:32;64.40;;;30.95;;
73869;SDS011;64924;42.140;24.762;2024-03-02T00:37:58;65.40;;;30.75;;
73869;SDS011;64924;42.140;24.762;2024-03-02T00:40:26;63.67;;;29.70;;
73869;SDS011;64924;42.140;24.762;2024-03-02T00:42:55;69.10;;;30.88;;
73869;SDS011;64924;42.140;24.762;2024-03-02T00:45:21;66.22;;;31.77;;
73869;SDS011;64924;42.140;24.762;2024-03-02T00:47:46;68.80;;;31.75;;
73869;SDS011;64924;42.140;24.762;2024-03-02T00:50:12;68.60;;;30.33;;
73869;SDS011;64924;42.140;24.762;2024-03-02T00:52:40;66.63;;;31.25;;
73869;SDS011;64924;42.140;24.762;2024-03-02T00:55:06;74.93;;;31.77;;
73869;SDS011;64924;42.140;24.762;2024-03-02T00:57:33;73.13;;;32.15;;
73869;SDS011;64924;42.140;24.762;2024-03-02T00:59:59;63.15;;;25.77;;
73869;SDS011;64924;42.140;24.762;2024-03-02T01:02:25;74.03;;;34.35;;
73869;SDS011;64924;42.140;24.762;2024-03-02T01:04:51;75.47;;;32.70;;
73869;SDS011;64924;42.140;24.762;2024-03-02T01:07:17;81.88;;;34.60;;
73869;SDS011;64924;42.140;24.762;2024-03-02T01:09:42;86.05;;;34.90;;
73869;SDS011;64924;42.140;24.762;2024-03-02T01:12:08;79.10;;;33.08;;
73869;SDS011;64924;42.140;24.762;2024-03-02T01:14:34;95.18;;;37.35;;
73869;SDS011;64924;42.140;24.762;2024-03-02T01:17:00;96.07;;;35.83;;
73869;SDS011;64924;42.140;24.762;2024-03-02T01:19:28;88.38;;;34.88;;
73869;SDS011;64924;42.140;24.762;2024-03-02T01:21:54;94.80;;;36.83;;
73869;SDS011;64924;42.140;24.762;2024-03-02T01:24:19;97.63;;;37.10;;
73869;SDS011;64924;42.140;24.762;2024-03-02T01:26:44;96.28;;;37.28;;
73869;SDS011;64924;42.140;24.762;2024-03-02T01:29:10;102.90;;;38.20;;
73869;SDS011;64924;42.140;24.762;2024-03-02T01:31:35;98.30;;;39.15;;
73869;SDS011;64924;42.140;24.762;2024-03-02T01:34:01;93.32;;;36.50;;
73869;SDS011;64924;42.140;24.762;2024-03-02T01:36:26;102.97;;;38.58;;
73869;SDS011;64924;42.140;24.762;2024-03-02T01:38:52;96.93;;;36.95;;
73869;SDS011;64924;42.140;24.762;2024-03-02T01:41:17;100.10;;;38.40;;
73869;SDS011;64924;42.140;24.762;2024-03-02T01:43:43;108.97;;;38.33;;
73869;SDS011;64924;42.140;24.762;2024-03-02T01:46:08;102.30;;;37.08;;
73869;SDS011;64924;42.140;24.762;2024-03-02T01:48:34;97.55;;;35.42;;
73869;SDS011;64924;42.140;24.762;2024-03-02T01:50:59;103.53;;;37.80;;
73869;SDS011;64924;42.140;24.762;2024-03-02T01:53:26;100.88;;;36.55;;
73869;SDS011;64924;42.140;24.762;2024-03-02T01:55:51;102.93;;;36.15;;
73869;SDS011;64924;42.140;24.762;2024-03-02T01:58:17;114.80;;;38.22;;
73869;SDS011;64924;42.140;24.762;2024-03-02T02:00:42;106.70;;;38.70;;
73869;SDS011;64924;42.140;24.762;2024-03-02T02:03:08;98.13;;;36.15;;
73869;SDS011;64924;42.140;24.762;2024-03-02T02:05:34;103.05;;;36.33;;
73869;SDS011;64924;42.140;24.762;2024-03-02T02:08:00;91.38;;;35.78;;
73869;SDS011;64924;42.140;24.762;2024-03-02T02:10:26;84.03;;;32.35;;
73869;SDS011;64924;42.140;24.762;2024-03-02T02:12:52;91.55;;;33.63;;
73869;SDS011;64924;42.140;24.762;2024-03-02T02:15:27;84.38;;;34.10;;
73869;SDS011;64924;42.140;24.762;2024-03-02T02:17:56;64.35;;;27.45;;
73869;SDS011;64924;42.140;24.762;2024-03-02T02:20:23;66.95;;;28.65;;
73869;SDS011;64924;42.140;24.762;2024-03-02T02:22:56;66.55;;;30.15;;
73869;SDS011;64924;42.140;24.762;2024-03-02T02:25:24;75.60;;;33.30;;
73869;SDS011;64924;42.140;24.762;2024-03-02T02:27:50;73.40;;;32.15;;
73869;SDS011;64924;42.140;24.762;2024-03-02T02:30:23;73.00;;;31.42;;
73869;SDS011;64924;42.140;24.762;2024-03-02T02:32:53;67.97;;;30.63;;
73869;SDS011;64924;42.140;24.762;2024-03-02T02:35:18;71.47;;;29.27;;
73869;SDS011;64924;42.140;24.762;2024-03-02T02:37:45;75.53;;;31.35;;
73869;SDS011;64924;42.140;24.762;2024-03-02T02:40:11;72.55;;;28.73;;
73869;SDS011;64924;42.140;24.762;2024-03-02T02:42:37;65.60;;;29.85;;
73869;SDS011;64924;42.140;24.762;2024-03-02T02:45:04;67.93;;;28.98;;
73869;SDS011;64924;42.140;24.762;2024-03-02T02:47:30;70.63;;;32.55;;
73869;SDS011;64924;42.140;24.762;2024-03-02T02:49:55;77.00;;;31.08;;
73869;SDS011;64924;42.140;24.762;2024-03-02T02:52:21;76.13;;;32.60;;
73869;SDS011;64924;42.140;24.762;2024-03-02T02:54:47;68.35;;;32.05;;
73869;SDS011;64924;42.140;24.762;2024-03-02T02:57:12;70.18;;;30.35;;
73869;SDS011;64924;42.140;24.762;2024-03-02T02:59:38;67.53;;;31.08;;
73869;SDS011;64924;42.140;24.762;2024-03-02T03:02:03;65.75;;;32.78;;
73869;SDS011;64924;42.140;24.762;2024-03-02T03:04:29;77.55;;;32.10;;
73869;SDS011;64924;42.140;24.762;2024-03-02T03:06:54;73.68;;;31.58;;
73869;SDS011;64924;42.140;24.762;2024-03-02T03:09:20;70.63;;;30.55;;
73869;SDS011;64924;42.140;24.762;2024-03-02T03:11:45;71.53;;;31.92;;
73869;SDS011;64924;42.140;24.762;2024-03-02T03:14:11;71.75;;;30.42;;
73869;SDS011;64924;42.140;24.762;2024-03-02T03:16:36;65.95;;;30.27;;
73869;SDS011;64924;42.140;24.762;2024-03-02T03:19:02;74.95;;;33.90;;
73869;SDS011;64924;42.140;24.762;2024-03-02T03:21:28;70.70;;;32.00;;
73869;SDS011;64924;42.140;24.762;2024-03-02T03:23:53;70.57;;;30.50;;
73869;SDS011;64924;42.140;24.762;2024-03-02T03:26:20;68.93;;;30.98;;
73869;SDS011;64924;42.140;24.762;2024-03-02T03:28:45;69.03;;;30.88;;
73869;SDS011;64924;42.140;24.762;2024-03-02T03:31:11;61.33;;;29.15;;
73869;SDS011;64924;42.140;24.762;2024-03-02T03:33:37;76.65;;;32.80;;
73869;SDS011;64924;42.140;24.762;2024-03-02T03:36:02;68.30;;;31.30;;
73869;SDS011;64924;42.140;24.762;2024-03-02T03:38:28;65.70;;;30.38;;
73869;SDS011;64924;42.140;24.762;2024-03-02T03:40:54;65.85;;;29.50;;
73869;SDS011;64924;42.140;24.762;2024-03-02T03:43:20;60.63;;;31.02;;
73869;SDS011;64924;42.140;24.762;2024-03-02T03:45:45;65.85;;;29.63;;
73869;SDS011;64924;42.140;24.762;2024-03-02T03:48:11;68.07;;;31.95;;
73869;SDS011;64924;42.140;24.762;2024-03-02T03:50:36;64.60;;;29.35;;
73869;SDS011;64924;42.140;24.762;2024-03-02T03:53:03;72.03;;;31.80;;
73869;SDS011;64924;42.140;24.762;2024-03-02T03:55:28;63.83;;;31.65;;
73869;SDS011;64924;42.140;24.762;2024-03-02T03:57:54;71.57;;;33.03;;
73869;SDS011;64924;42.140;24.762;2024-03-02T04:00:19;71.22;;;31.88;;
73869;SDS011;64924;42.140;24.762;2024-03-02T04:02:45;68.57;;;33.88;;
73869;SDS011;64924;42.140;24.762;2024-03-02T04:05:10;70.40;;;32.08;;
73869;SDS011;64924;42.140;24.762;2024-03-02T04:07:39;71.45;;;32.10;;
73869;SDS011;64924;42.140;24.762;2024-03-02T04:10:08;69.38;;;31.55;;
73869;SDS011;64924;42.140;24.762;2024-03-02T04:12:38;70.20;;;33.67;;
73869;SDS011;64924;42.140;24.762;2024-03-02T04:15:07;73.28;;;33.72;;
73869;SDS011;64924;42.140;24.762;2024-03-02T04:17:33;67.75;;;30.55;;
73869;SDS011;64924;42.140;24.762;2024-03-02T04:19:59;70.88;;;31.65;;
73869;SDS011;64924;42.140;24.762;2024-03-02T04:22:26;72.22;;;32.13;;
73869;SDS011;64924;42.140;24.762;2024-03-02T04:24:52;65.68;;;32.75;;
73869;SDS011;64924;42.140;24.762;2024-03-02T04:27:18;75.38;;;35.65;;
73869;SDS011;64924;42.140;24.762;2024-03-02T04:29:43;74.55;;;31.90;;
73869;SDS011;64924;42.140;24.762;2024-03-02T04:32:09;67.75;;;29.77;;
73869;SDS011;64924;42.140;24.762;2024-03-02T04:34:35;69.57;;;31.45;;
73869;SDS011;64924;42.140;24.762;2024-03-02T04:37:00;75.15;;;32.75;;
73869;SDS011;64924;42.140;24.762;2024-03-02T04:39:26;73.07;;;28.88;;
73869;SDS011;64924;42.140;24.762;2024-03-02T04:41:52;74.97;;;30.05;;
73869;SDS011;64924;42.140;24.762;2024-03-02T04:44:17;68.25;;;30.25;;
73869;SDS011;64924;42.140;24.762;2024-03-02T04:46:43;71.03;;;30.95;;
73869;SDS011;64924;42.140;24.762;2024-03-02T04:49:08;76.97;;;31.20;;
73869;SDS011;64924;42.140;24.762;2024-03-02T04:51:34;74.78;;;30.45;;
73869;SDS011;64924;42.140;24.762;2024-03-02T04:53:59;71.47;;;30.95;;
73869;SDS011;64924;42.140;24.762;2024-03-02T04:56:25;82.90;;;30.13;;
73869;SDS011;64924;42.140;24.762;2024-03-02T04:58:56;69.90;;;30.55;;
73869;SDS011;64924;42.140;24.762;2024-03-02T05:01:22;77.57;;;30.30;;
73869;SDS011;64924;42.140;24.762;2024-03-02T05:03:47;82.75;;;32.33;;
73869;SDS011;64924;42.140;24.762;2024-03-02T05:06:13;76.32;;;30.75;;
73869;SDS011;64924;42.140;24.762;2024-03-02T05:08:38;72.40;;;30.00;;
73869;SDS011;64924;42.140;24.762;2024-03-02T05:11:04;75.30;;;31.73;;
73869;SDS011;64924;42.140;24.762;2024-03-02T05:14:05;70.35;;;28.60;;
73869;SDS011;64924;42.140;24.762;2024-03-02T05:16:34;64.65;;;28.13;;
73869;SDS011;64924;42.140;24.762;2024-03-02T05:19:00;64.33;;;28.23;;
73869;SDS011;64924;42.140;24.762;2024-03-02T05:21:25;65.47;;;25.63;;
73869;SDS011;64924;42.140;24.762;2024-03-02T05:23:51;66.70;;;26.25;;
73869;SDS011;64924;42.140;24.762;2024-03-02T05:26:16;64.45;;;27.40;;
73869;SDS011;64924;42.140;24.762;2024-03-02T05:28:42;59.60;;;26.70;;
73869;SDS011;64924;42.140;24.762;2024-03-02T05:31:11;68.15;;;28.13;;
73869;SDS011;64924;42.140;24.762;2024-03-02T05:33:39;60.83;;;26.98;;
73869;SDS011;64924;42.140;24.762;2024-03-02T05:36:05;65.28;;;27.17;;
73869;SDS011;64924;42.140;24.762;2024-03-02T05:38:31;71.22;;;29.98;;
73869;SDS011;64924;42.140;24.762;2024-03-02T05:40:56;73.57;;;29.25;;
73869;SDS011;64924;42.140;24.762;2024-03-02T05:43:22;63.75;;;29.92;;
73869;SDS011;64924;42.140;24.762;2024-03-02T05:45:47;63.47;;;28.65;;
73869;SDS011;64924;42.140;24.762;2024-03-02T05:48:13;65.38;;;28.10;;
73869;SDS011;64924;42.140;24.762;2024-03-02T05:50:38;69.18;;;29.20;;
73869;SDS011;64924;42.140;24.762;2024-03-02T05:53:04;64.53;;;27.42;;
73869;SDS011;64924;42.140;24.762;2024-03-02T05:55:29;63.80;;;27.63;;
73869;SDS011;64924;42.140;24.762;2024-03-02T05:57:56;56.72;;;24.75;;
73869;SDS011;64924;42.140;24.762;2024-03-02T06:00:41;56.03;;;26.17;;
73869;SDS011;64924;42.140;24.762;2024-03-02T06:03:07;64.05;;;27.05;;
73869;SDS011;64924;42.140;24.762;2024-03-02T06:05:34;62.15;;;26.23;;
73869;SDS011;64924;42.140;24.762;2024-03-02T06:07:59;52.65;;;26.33;;
73869;SDS011;64924;42.140;24.762;2024-03-02T06:10:25;52.85;;;24.13;;
73869;SDS011;64924;42.140;24.762;2024-03-02T06:12:50;48.90;;;24.33;;
73869;SDS011;64924;42.140;24.762;2024-03-02T06:15:16;51.25;;;25.52;;
73869;SDS011;64924;42.140;24.762;2024-03-02T06:17:42;49.40;;;24.00;;
73869;SDS011;64924;42.140;24.762;2024-03-02T06:20:07;48.15;;;24.50;;
73869;SDS011;64924;42.140;24.762;2024-03-02T06:22:33;48.90;;;21.98;;
73869;SDS011;64924;42.140;24.762;2024-03-02T06:24:59;45.83;;;22.73;;
73869;SDS011;64924;42.140;24.762;2024-03-02T06:27:25;51.05;;;25.20;;
73869;SDS011;64924;42.140;24.762;2024-03-02T06:29:50;47.38;;;22.95;;
73869;SDS011;64924;42.140;24.762;2024-03-02T06:32:16;45.92;;;22.05;;
73869;SDS011;64924;42.140;24.762;2024-03-02T06:34:42;47.42;;;23.00;;
73869;SDS011;64924;42.140;24.762;2024-03-02T06:37:07;42.55;;;21.45;;
73869;SDS011;64924;42.140;24.762;2024-03-02T06:39:33;43.95;;;23.23;;
73869;SDS011;64924;42.140;24.762;2024-03-02T06:41:59;41.80;;;20.58;;
73869;SDS011;64924;42.140;24.762;2024-03-02T06:44:25;45.53;;;21.95;;
73869;SDS011;64924;42.140;24.762;2024-03-02T06:46:50;48.22;;;22.48;;
73869;SDS011;64924;42.140;24.762;2024-03-02T06:49:16;43.85;;;20.63;;
73869;SDS011;64924;42.140;24.762;2024-03-02T06:51:43;43.78;;;21.48;;
73869;SDS011;64924;42.140;24.762;2024-03-02T06:54:09;43.47;;;21.27;;
73869;SDS011;64924;42.140;24.762;2024-03-02T06:56:34;42.33;;;21.45;;
73869;SDS011;64924;42.140;24.762;2024-03-02T06:59:00;42.53;;;21.15;;
73869;SDS011;64924;42.140;24.762;2024-03-02T07:01:25;38.38;;;20.20;;
73869;SDS011;64924;42.140;24.762;2024-03-02T07:03:51;46.00;;;20.65;;
73869;SDS011;64924;42.140;24.762;2024-03-02T07:06:17;43.88;;;20.45;;
73869;SDS011;64924;42.140;24.762;2024-03-02T07:08:42;44.50;;;20.13;;
73869;SDS011;64924;42.140;24.762;2024-03-02T07:11:08;39.22;;;20.58;;
73869;SDS011;64924;42.140;24.762;2024-03-02T07:13:34;43.63;;;21.67;;
73869;SDS011;64924;42.140;24.762;2024-03-02T07:16:00;37.65;;;20.35;;
73869;SDS011;64924;42.140;24.762;2024-03-02T07:18:31;31.58;;;17.83;;
73869;SDS011;64924;42.140;24.762;2024-03-02T07:20:57;39.03;;;19.50;;
73869;SDS011;64924;42.140;24.762;2024-03-02T07:23:28;42.00;;;22.00;;
73869;SDS011;64924;42.140;24.762;2024-03-02T07:25:55;40.97;;;20.80;;
73869;SDS011;64924;42.140;24.762;2024-03-02T07:28:24;38.08;;;20.77;;
73869;SDS011;64924;42.140;24.762;2024-03-02T07:33:24;42.03;;;20.35;;
73869;SDS011;64924;42.140;24.762;2024-03-02T07:35:50;38.70;;;20.13;;
73869;SDS011;64924;42.140;24.762;2024-03-02T07:38:16;40.13;;;20.30;;
73869;SDS011;64924;42.140;24.762;2024-03-02T07:40:42;37.28;;;19.98;;
73869;SDS011;64924;42.140;24.762;2024-03-02T07:43:07;41.28;;;22.48;;
73869;SDS011;64924;42.140;24.762;2024-03-02T07:45:33;37.53;;;19.05;;
73869;SDS011;64924;42.140;24.762;2024-03-02T07:48:01;39.10;;;20.95;;
73869;SDS011;64924;42.140;24.762;2024-03-02T07:50:29;37.13;;;18.30;;
73869;SDS011;64924;42.140;24.762;2024-03-02T07:52:55;37.97;;;20.38;;
73869;SDS011;64924;42.140;24.762;2024-03-02T07:55:20;34.38;;;19.63;;
73869;SDS011;64924;42.140;24.762;2024-03-02T07:57:46;35.60;;;19.65;;
73869;SDS011;64924;42.140;24.762;2024-03-02T08:00:12;36.22;;;19.42;;
73869;SDS011;64924;42.140;24.762;2024-03-02T08:02:37;34.63;;;18.60;;
73869;SDS011;64924;42.140;24.762;2024-03-02T08:05:03;32.22;;;17.58;;
73869;SDS011;64924;42.140;24.762;2024-03-02T08:07:29;42.55;;;20.75;;
73869;SDS011;64924;42.140;24.762;2024-03-02T08:09:54;38.58;;;19.50;;
73869;SDS011;64924;42.140;24.762;2024-03-02T08:12:20;39.00;;;20.80;;
73869;SDS011;64924;42.140;24.762;2024-03-02T08:14:48;36.97;;;19.80;;
73869;SDS011;64924;42.140;24.762;2024-03-02T08:17:14;34.78;;;19.17;;
73869;SDS011;64924;42.140;24.762;2024-03-02T08:19:39;30.65;;;17.70;;
73869;SDS011;64924;42.140;24.762;2024-03-02T08:22:05;35.50;;;18.05;;
73869;SDS011;64924;42.140;24.762;2024-03-02T08:24:31;34.95;;;19.40;;
73869;SDS011;64924;42.140;24.762;2024-03-02T08:26:57;30.80;;;17.13;;
73869;SDS011;64924;42.140;24.762;2024-03-02T08:29:24;31.52;;;18.25;;
73869;SDS011;64924;42.140;24.762;2024-03-02T08:31:50;29.15;;;16.83;;
73869;SDS011;64924;42.140;24.762;2024-03-02T08:34:15;29.00;;;15.65;;
73869;SDS011;64924;42.140;24.762;2024-03-02T08:36:41;31.13;;;18.15;;
73869;SDS011;64924;42.140;24.762;2024-03-02T08:39:07;34.15;;;18.60;;
73869;SDS011;64924;42.140;24.762;2024-03-02T08:41:49;30.48;;;18.10;;
73869;SDS011;64924;42.140;24.762;2024-03-02T08:44:15;34.38;;;18.50;;
73869;SDS011;64924;42.140;24.762;2024-03-02T08:46:41;33.60;;;16.35;;
73869;SDS011;64924;42.140;24.762;2024-03-02T08:49:06;32.13;;;18.30;;
73869;SDS011;64924;42.140;24.762;2024-03-02T08:51:32;39.15;;;19.13;;
73869;SDS011;64924;42.140;24.762;2024-03-02T08:53:58;38.95;;;19.45;;
73869;SDS011;64924;42.140;24.762;2024-03-02T08:56:24;42.78;;;20.27;;
73869;SDS011;64924;42.140;24.762;2024-03-02T08:58:50;42.35;;;20.83;;
73869;SDS011;64924;42.140;24.762;2024-03-02T09:01:16;41.83;;;19.77;;
73869;SDS011;64924;42.140;24.762;2024-03-02T09:03:43;40.13;;;20.85;;
73869;SDS011;64924;42.140;24.762;2024-03-02T09:06:12;41.22;;;20.52;;
73869;SDS011;64924;42.140;24.762;2024-03-02T09:08:39;43.75;;;21.60;;
73869;SDS011;64924;42.140;24.762;2024-03-02T09:11:07;44.38;;;20.40;;
73869;SDS011;64924;42.140;24.762;2024-03-02T09:13:33;50.22;;;21.00;;
73869;SDS011;64924;42.140;24.762;2024-03-02T09:15:59;45.65;;;20.92;;
73869;SDS011;64924;42.140;24.762;2024-03-02T09:18:25;49.53;;;22.63;;
73869;SDS011;64924;42.140;24.762;2024-03-02T09:20:50;40.80;;;21.85;;
73869;SDS011;64924;42.140;24.762;2024-03-02T09:23:15;49.75;;;22.02;;
73869;SDS011;64924;42.140;24.762;2024-03-02T09:25:41;46.33;;;22.42;;
73869;SDS011;64924;42.140;24.762;2024-03-02T09:28:06;43.13;;;22.33;;
73869;SDS011;64924;42.140;24.762;2024-03-02T09:30:32;56.72;;;26.20;;
73869;SDS011;64924;42.140;24.762;2024-03-02T09:32:58;49.10;;;24.30;;
73869;SDS011;64924;42.140;24.762;2024-03-02T09:35:24;53.20;;;24.38;;
73869;SDS011;64924;42.140;24.762;2024-03-02T09:37:50;45.47;;;22.88;;
73869;SDS011;64924;42.140;24.762;2024-03-02T09:40:15;55.58;;;23.75;;
73869;SDS011;64924;42.140;24.762;2024-03-02T09:42:41;44.72;;;22.83;;
73869;SDS011;64924;42.140;24.762;2024-03-02T09:45:08;44.40;;;22.02;;
73869;SDS011;64924;42.140;24.762;2024-03-02T09:47:34;41.05;;;21.42;;
73869;SDS011;64924;42.140;24.762;2024-03-02T09:50:00;55.22;;;25.63;;
73869;SDS011;64924;42.140;24.762;2024-03-02T09:52:25;43.95;;;21.13;;
73869;SDS011;64924;42.140;24.762;2024-03-02T09:54:51;46.22;;;22.52;;
73869;SDS011;64924;42.140;24.762;2024-03-02T09:57:17;44.65;;;22.88;;
73869;SDS011;64924;42.140;24.762;2024-03-02T09:59:42;45.20;;;21.70;;
73869;SDS011;64924;42.140;24.762;2024-03-02T10:02:08;43.60;;;21.67;;
73869;SDS011;64924;42.140;24.762;2024-03-02T10:04:33;43.65;;;21.55;;
73869;SDS011;64924;42.140;24.762;2024-03-02T10:09:38;37.97;;;21.85;;
73869;SDS011;64924;42.140;24.762;2024-03-02T10:12:04;45.50;;;23.45;;
73869;SDS011;64924;42.140;24.762;2024-03-02T10:14:31;41.70;;;23.45;;
73869;SDS011;64924;42.140;24.762;2024-03-02T10:17:03;50.40;;;23.80;;
73869;SDS011;64924;42.140;24.762;2024-03-02T10:19:31;42.67;;;22.80;;
73869;SDS011;64924;42.140;24.762;2024-03-02T10:22:00;45.13;;;23.52;;
73869;SDS011;64924;42.140;24.762;2024-03-02T10:24:27;44.92;;;22.13;;
73869;SDS011;64924;42.140;24.762;2024-03-02T10:27:00;39.20;;;22.40;;
73869;SDS011;64924;42.140;24.762;2024-03-02T10:29:28;44.00;;;23.50;;
73869;SDS011;64924;42.140;24.762;2024-03-02T10:31:54;39.78;;;22.20;;
73869;SDS011;64924;42.140;24.762;2024-03-02T10:34:21;46.95;;;25.38;;
73869;SDS011;64924;42.140;24.762;2024-03-02T10:36:46;51.38;;;26.35;;
73869;SDS011;64924;42.140;24.762;2024-03-02T10:39:13;45.97;;;24.23;;
73869;SDS011;64924;42.140;24.762;2024-03-02T10:41:39;46.47;;;22.73;;
73869;SDS011;64924;42.140;24.762;2024-03-02T10:44:06;42.42;;;23.77;;
73869;SDS011;64924;42.140;24.762;2024-03-02T10:46:33;46.70;;;23.45;;
73869;SDS011;64924;42.140;24.762;2024-03-02T10:49:01;45.63;;;25.50;;
73869;SDS011;64924;42.140;24.762;2024-03-02T10:51:30;52.65;;;25.20;;
73869;SDS011;64924;42.140;24.762;2024-03-02T10:53:57;45.30;;;22.60;;
73869;SDS011;64924;42.140;24.762;2024-03-02T10:56:42;43.85;;;24.23;;
73869;SDS011;64924;42.140;24.762;2024-03-02T11:01:58;49.13;;;25.67;;
73869;SDS011;64924;42.140;24.762;2024-03-02T11:04:25;48.78;;;26.08;;
73869;SDS011;64924;42.140;24.762;2024-03-02T11:06:58;48.47;;;26.88;;
73869;SDS011;64924;42.140;24.762;2024-03-02T11:09:28;47.65;;;27.80;;
73869;SDS011;64924;42.140;24.762;2024-03-02T11:14:23;49.30;;;26.42;;
73869;SDS011;64924;42.140;24.762;2024-03-02T11:16:50;46.58;;;27.15;;
73869;SDS011;64924;42.140;24.762;2024-03-02T11:19:17;51.55;;;27.83;;
73869;SDS011;64924;42.140;24.762;2024-03-02T11:21:44;50.42;;;27.55;;
73869;SDS011;64924;42.140;24.762;2024-03-02T11:26:49;47.30;;;28.13;;
73869;SDS011;64924;42.140;24.762;2024-03-02T11:32:02;52.45;;;28.30;;
73869;SDS011;64924;42.140;24.762;2024-03-02T11:34:32;58.22;;;29.10;;
73869;SDS011;64924;42.140;24.762;2024-03-02T11:39:25;47.35;;;27.42;;
73869;SDS011;64924;42.140;24.762;2024-03-02T11:41:51;57.40;;;28.77;;
73869;SDS011;64924;42.140;24.762;2024-03-02T11:44:17;51.22;;;28.77;;
73869;SDS011;64924;42.140;24.762;2024-03-02T11:46:44;54.15;;;29.98;;
73869;SDS011;64924;42.140;24.762;2024-03-02T11:49:14;51.80;;;28.50;;
73869;SDS011;64924;42.140;24.762;2024-03-02T11:51:40;38.75;;;21.83;;
73869;SDS011;64924;42.140;24.762;2024-03-02T11:54:25;54.30;;;30.42;;
73869;SDS011;64924;42.140;24.762;2024-03-02T11:56:53;49.25;;;29.52;;
73869;SDS011;64924;42.140;24.762;2024-03-02T11:59:19;43.08;;;26.88;;
73869;SDS011;64924;42.140;24.762;2024-03-02T12:01:46;45.47;;;29.00;;
73869;SDS011;64924;42.140;24.762;2024-03-02T12:04:13;41.22;;;26.35;;
73869;SDS011;64924;42.140;24.762;2024-03-02T12:06:38;38.20;;;25.42;;
73869;SDS011;64924;42.140;24.762;2024-03-02T12:09:04;32.33;;;23.30;;
73869;SDS011;64924;42.140;24.762;2024-03-02T12:11:30;31.27;;;22.58;;
73869;SDS011;64924;42.140;24.762;2024-03-02T12:13:55;30.45;;;21.63;;
73869;SDS011;64924;42.140;24.762;2024-03-02T12:16:25;26.63;;;18.98;;
73869;SDS011;64924;42.140;24.762;2024-03-02T12:18:50;27.50;;;18.88;;
73869;SDS011;64924;42.140;24.762;2024-03-02T12:21:16;27.30;;;20.25;;
73869;SDS011;64924;42.140;24.762;2024-03-02T12:23:42;31.83;;;22.23;;
73869;SDS011;64924;42.140;24.762;2024-03-02T12:26:07;28.55;;;19.58;;
73869;SDS011;64924;42.140;24.762;2024-03-02T12:28:33;26.00;;;19.48;;
73869;SDS011;64924;42.140;24.762;2024-03-02T12:31:00;30.75;;;20.75;;
73869;SDS011;64924;42.140;24.762;2024-03-02T12:33:25;31.35;;;21.10;;
73869;SDS011;64924;42.140;24.762;2024-03-02T12:35:52;31.75;;;21.10;;
73869;SDS011;64924;42.140;24.762;2024-03-02T12:38:18;34.13;;;22.38;;
73869;SDS011;64924;42.140;24.762;2024-03-02T12:40:44;36.15;;;23.05;;
73869;SDS011;64924;42.140;24.762;2024-03-02T12:43:10;38.30;;;23.98;;
73869;SDS011;64924;42.140;24.762;2024-03-02T12:45:36;40.05;;;24.38;;
73869;SDS011;64924;42.140;24.762;2024-03-02T12:48:01;42.40;;;27.52;;
73869;SDS011;64924;42.140;24.762;2024-03-02T12:50:30;41.90;;;27.83;;
73869;SDS011;64924;42.140;24.762;2024-03-02T12:52:55;31.75;;;22.98;;
73869;SDS011;64924;42.140;24.762;2024-03-02T12:55:21;31.33;;;22.65;;
73869;SDS011;64924;42.140;24.762;2024-03-02T12:57:47;35.42;;;23.10;;
73869;SDS011;64924;42.140;24.762;2024-03-02T13:00:17;34.17;;;23.55;;
73869;SDS011;64924;42.140;24.762;2024-03-02T13:02:45;34.15;;;23.08;;
73869;SDS011;64924;42.140;24.762;2024-03-02T13:05:11;36.90;;;25.38;;
73869;SDS011;64924;42.140;24.762;2024-03-02T13:07:37;36.53;;;25.98;;
73869;SDS011;64924;42.140;24.762;2024-03-02T13:10:03;43.45;;;27.35;;
73869;SDS011;64924;42.140;24.762;2024-03-02T13:12:29;38.00;;;26.60;;
73869;SDS011;64924;42.140;24.762;2024-03-02T13:14:57;42.75;;;28.33;;
73869;SDS011;64924;42.140;24.762;2024-03-02T13:17:23;37.53;;;26.98;;
73869;SDS011;64924;42.140;24.762;2024-03-02T13:22:18;38.77;;;28.03;;
73869;SDS011;64924;42.140;24.762;2024-03-02T13:24:44;40.35;;;28.73;;
73869;SDS011;64924;42.140;24.762;2024-03-02T13:27:09;38.80;;;25.77;;
73869;SDS011;64924;42.140;24.762;2024-03-02T13:29:34;37.75;;;26.30;;
73869;SDS011;64924;42.140;24.762;2024-03-02T13:32:00;40.05;;;26.95;;
73869;SDS011;64924;42.140;24.762;2024-03-02T13:34:25;41.13;;;27.52;;
73869;SDS011;64924;42.140;24.762;2024-03-02T13:36:51;39.80;;;27.95;;
73869;SDS011;64924;42.140;24.762;2024-03-02T13:39:16;39.78;;;27.23;;
73869;SDS011;64924;42.140;24.762;2024-03-02T13:41:42;41.50;;;26.88;;
73869;SDS011;64924;42.140;24.762;2024-03-02T13:44:10;39.30;;;27.00;;
73869;SDS011;64924;42.140;24.762;2024-03-02T13:46:36;41.33;;;28.20;;
73869;SDS011;64924;42.140;24.762;2024-03-02T13:49:01;41.67;;;29.05;;
73869;SDS011;64924;42.140;24.762;2024-03-02T13:51:27;43.97;;;29.45;;
73869;SDS011;64924;42.140;24.762;2024-03-02T13:53:53;41.17;;;27.77;;
73869;SDS011;64924;42.140;24.762;2024-03-02T13:56:18;42.90;;;29.65;;
73869;SDS011;64924;42.140;24.762;2024-03-02T13:58:44;38.40;;;27.98;;
73869;SDS011;64924;42.140;24.762;2024-03-02T14:01:11;38.22;;;26.77;;
73869;SDS011;64924;42.140;24.762;2024-03-02T14:03:36;37.85;;;25.40;;
73869;SDS011;64924;42.140;24.762;2024-03-02T14:06:02;33.10;;;24.60;;
73869;SDS011;64924;42.140;24.762;2024-03-02T14:08:28;32.85;;;24.27;;
73869;SDS011;64924;42.140;24.762;2024-03-02T14:10:53;33.13;;;24.10;;
73869;SDS011;64924;42.140;24.762;2024-03-02T14:13:20;38.60;;;27.23;;
73869;SDS011;64924;42.140;24.762;2024-03-02T14:15:45;29.30;;;22.55;;
73869;SDS011;64924;42.140;24.762;2024-03-02T14:18:11;30.90;;;21.85;;
73869;SDS011;64924;42.140;24.762;2024-03-02T14:20:37;32.63;;;23.95;;
73869;SDS011;64924;42.140;24.762;2024-03-02T14:23:03;33.95;;;23.88;;
73869;SDS011;64924;42.140;24.762;2024-03-02T14:25:29;32.60;;;22.05;;
73869;SDS011;64924;42.140;24.762;2024-03-02T14:27:59;31.40;;;22.23;;
73869;SDS011;64924;42.140;24.762;2024-03-02T14:30:24;35.03;;;23.02;;